Wetterdaten: Woche 28.08.23 - 03.09.23 (KW35)
Datum Zeit Temp. I. Temp. A. Feuchte I. Feuchte A. Luftdruck Regen Wind Richtung Sonnenschein Solar Taupunkt Windchill Windböen
28.08.2023 00:00 23,5 °C 14,5 °C 63 % 90 % 1011,1 hPa 0,0 l/m² 0,4 km/h (0 Bft) SW 0,00 h 0 W/m² 12,9 °C 14,5 °C 1,6 km/h (1 Bft)
28.08.2023 01:00 23,4 °C 13,6 °C 63 % 92 % 1011,3 hPa 0,0 l/m² 1,5 km/h (1 Bft) SW 0,00 h 0 W/m² 12,2 °C 13,6 °C 2,9 km/h (1 Bft)
28.08.2023 02:00 23,4 °C 12,7 °C 63 % 92 % 1011,2 hPa 0,0 l/m² 0,6 km/h (0 Bft) SW 0,00 h 0 W/m² 11,5 °C 12,7 °C 1,6 km/h (1 Bft)
28.08.2023 03:00 23,3 °C 11,9 °C 63 % 94 % 1011,2 hPa 0,0 l/m² 0,9 km/h (0 Bft) SW 0,00 h 0 W/m² 10,9 °C 11,9 °C 1,8 km/h (1 Bft)
28.08.2023 04:00 23,3 °C 11,5 °C 63 % 94 % 1011,6 hPa 0,0 l/m² 2,7 km/h (1 Bft) O 0,00 h 0 W/m² 10,6 °C 11,5 °C 4,2 km/h (1 Bft)
28.08.2023 05:00 23,3 °C 12,0 °C 63 % 93 % 1012,0 hPa 0,0 l/m² 4,6 km/h (1 Bft) SW 0,00 h 0 W/m² 10,9 °C 11,7 °C 6,2 km/h (2 Bft)
28.08.2023 06:00 23,2 °C 11,6 °C 63 % 93 % 1011,6 hPa 0,0 l/m² 1,9 km/h (1 Bft) O-SO 0,00 h 17 W/m² 10,5 °C 11,6 °C 3,1 km/h (1 Bft)
28.08.2023 07:00 23,1 °C 12,3 °C 59 % 92 % 1011,8 hPa 0,0 l/m² 1,7 km/h (1 Bft) O-SO 0,82 h 81 W/m² 11,1 °C 12,3 °C 2,7 km/h (1 Bft)
28.08.2023 08:00 23,0 °C 13,4 °C 60 % 90 % 1012,2 hPa 0,0 l/m² 5,5 km/h (2 Bft) S 1,00 h 136 W/m² 11,8 °C 12,8 °C 7,7 km/h (2 Bft)
28.08.2023 09:00 23,0 °C 14,4 °C 61 % 88 % 1012,2 hPa 0,0 l/m² 5,5 km/h (2 Bft) SW 1,00 h 196 W/m² 12,3 °C 14,2 °C 7,5 km/h (2 Bft)
28.08.2023 10:00 22,9 °C 15,0 °C 61 % 86 % 1012,0 hPa 0,0 l/m² 5,1 km/h (1 Bft) SW 1,00 h 209 W/m² 12,7 °C 15,0 °C 7,0 km/h (2 Bft)
28.08.2023 11:00 23,0 °C 15,9 °C 61 % 83 % 1012,2 hPa 0,0 l/m² 4,0 km/h (1 Bft) SW 1,00 h 314 W/m² 13,1 °C 15,9 °C 6,0 km/h (2 Bft)
28.08.2023 12:00 23,1 °C 16,8 °C 61 % 78 % 1012,1 hPa 0,0 l/m² 2,4 km/h (1 Bft) SW 1,00 h 419 W/m² 12,9 °C 16,8 °C 4,4 km/h (1 Bft)
28.08.2023 13:00 23,1 °C 17,4 °C 61 % 76 % 1012,1 hPa 0,0 l/m² 3,0 km/h (1 Bft) W-SW 1,00 h 330 W/m² 13,1 °C 17,4 °C 5,8 km/h (2 Bft)
28.08.2023 14:00 23,1 °C 18,5 °C 61 % 71 % 1011,2 hPa 0,0 l/m² 4,2 km/h (1 Bft) N-NW 1,00 h 380 W/m² 13,1 °C 18,4 °C 7,4 km/h (2 Bft)
28.08.2023 15:00 23,1 °C 18,7 °C 61 % 70 % 1011,0 hPa 0,0 l/m² 3,7 km/h (1 Bft) N-NW 1,00 h 374 W/m² 13,0 °C 18,7 °C 6,3 km/h (2 Bft)
28.08.2023 16:00 23,1 °C 18,8 °C 61 % 70 % 1011,1 hPa 0,0 l/m² 2,5 km/h (1 Bft) N 1,00 h 187 W/m² 13,1 °C 18,8 °C 4,6 km/h (1 Bft)
28.08.2023 17:00 23,1 °C 18,5 °C 61 % 72 % 1011,1 hPa 0,0 l/m² 2,1 km/h (1 Bft) N 1,00 h 114 W/m² 13,2 °C 18,5 °C 3,5 km/h (1 Bft)
28.08.2023 18:00 23,0 °C 18,1 °C 61 % 73 % 1011,2 hPa 0,0 l/m² 0,1 km/h (0 Bft) NO 0,65 h 58 W/m² 13,1 °C 18,1 °C 0,3 km/h (0 Bft)
28.08.2023 19:00 23,1 °C 17,3 °C 62 % 79 % 1011,0 hPa 0,0 l/m² 0,2 km/h (0 Bft) NO 0,00 h 17 W/m² 13,7 °C 17,3 °C 0,4 km/h (0 Bft)
28.08.2023 20:00 23,1 °C 16,4 °C 62 % 85 % 1011,1 hPa 0,0 l/m² 1,0 km/h (0 Bft) NO 0,00 h 5 W/m² 13,9 °C 16,4 °C 1,6 km/h (1 Bft)
28.08.2023 21:00 23,2 °C 16,0 °C 62 % 88 % 1011,3 hPa 0,0 l/m² 0,7 km/h (0 Bft) NO 0,00 h 0 W/m² 14,1 °C 16,0 °C 0,9 km/h (0 Bft)
28.08.2023 22:00 23,2 °C 15,7 °C 62 % 89 % 1011,2 hPa 0,0 l/m² 0,1 km/h (0 Bft) O 0,00 h 0 W/m² 13,9 °C 15,7 °C 0,3 km/h (0 Bft)
28.08.2023 23:00 23,0 °C 15,4 °C 62 % 90 % 1010,6 hPa 0,0 l/m² 0,1 km/h (0 Bft) N 0,00 h 0 W/m² 13,8 °C 15,4 °C 0,3 km/h (0 Bft)
29.08.2023 00:00 22,9 °C 15,3 °C 62 % 92 % 1010,5 hPa 0,0 l/m² 0,6 km/h (0 Bft) N 0,00 h 0 W/m² 14,0 °C 15,3 °C 1,2 km/h (1 Bft)
29.08.2023 01:00 22,9 °C 15,2 °C 62 % 92 % 1010,0 hPa 0,0 l/m² 0,1 km/h (0 Bft) N 0,00 h 0 W/m² 13,9 °C 15,2 °C 0,3 km/h (0 Bft)
29.08.2023 02:00 22,8 °C 15,0 °C 62 % 91 % 1009,6 hPa 0,0 l/m² 1,4 km/h (1 Bft) N 0,00 h 0 W/m² 13,6 °C 15,0 °C 2,8 km/h (1 Bft)
29.08.2023 03:00 22,8 °C 15,1 °C 62 % 90 % 1009,5 hPa 0,0 l/m² 2,6 km/h (1 Bft) NW 0,00 h 0 W/m² 13,5 °C 15,1 °C 5,6 km/h (2 Bft)
29.08.2023 04:00 22,7 °C 15,1 °C 62 % 89 % 1009,3 hPa 0,0 l/m² 4,6 km/h (1 Bft) NW 0,00 h 0 W/m² 13,3 °C 15,1 °C 8,9 km/h (2 Bft)
29.08.2023 05:00 22,8 °C 15,0 °C 63 % 88 % 1008,6 hPa 0,0 l/m² 5,7 km/h (2 Bft) NW 0,00 h 0 W/m² 13,0 °C 14,8 °C 11,7 km/h (2 Bft)
29.08.2023 06:00 22,7 °C 14,8 °C 63 % 89 % 1008,6 hPa 0,0 l/m² 4,5 km/h (1 Bft) W-NW 0,00 h 5 W/m² 13,0 °C 14,7 °C 9,3 km/h (2 Bft)
29.08.2023 07:00 22,7 °C 14,6 °C 62 % 90 % 1008,7 hPa 0,6 l/m² 4,6 km/h (1 Bft) W-NW 0,00 h 23 W/m² 13,0 °C 14,5 °C 10,0 km/h (2 Bft)
29.08.2023 08:00 22,6 °C 14,3 °C 62 % 92 % 1008,9 hPa 0,8 l/m² 4,2 km/h (1 Bft) W-NW 0,27 h 48 W/m² 13,1 °C 14,3 °C 8,9 km/h (2 Bft)
29.08.2023 09:00 22,6 °C 14,5 °C 62 % 93 % 1009,4 hPa 0,8 l/m² 3,6 km/h (1 Bft) W-NW 1,00 h 79 W/m² 13,4 °C 14,5 °C 8,0 km/h (2 Bft)
29.08.2023 10:00 22,6 °C 14,7 °C 62 % 94 % 1009,9 hPa 0,2 l/m² 4,2 km/h (1 Bft) NW 1,00 h 104 W/m² 13,7 °C 14,7 °C 9,1 km/h (2 Bft)
29.08.2023 11:00 22,6 °C 15,6 °C 62 % 93 % 1009,7 hPa 0,2 l/m² 6,3 km/h (2 Bft) NW 1,00 h 267 W/m² 14,4 °C 15,1 °C 12,8 km/h (3 Bft)
29.08.2023 12:00 22,7 °C 16,7 °C 62 % 90 % 1009,6 hPa 0,0 l/m² 8,4 km/h (2 Bft) W-NW 1,00 h 384 W/m² 15,0 °C 15,6 °C 15,2 km/h (3 Bft)
29.08.2023 13:00 22,8 °C 18,0 °C 61 % 83 % 1009,3 hPa 0,0 l/m² 10,4 km/h (2 Bft) NW 1,00 h 449 W/m² 14,9 °C 16,3 °C 17,0 km/h (3 Bft)
29.08.2023 14:00 22,9 °C 18,6 °C 61 % 76 % 1009,2 hPa 0,0 l/m² 11,5 km/h (2 Bft) NW 1,00 h 407 W/m² 14,2 °C 16,6 °C 17,9 km/h (3 Bft)
29.08.2023 15:00 22,9 °C 18,3 °C 61 % 76 % 1009,1 hPa 0,0 l/m² 7,4 km/h (2 Bft) N-NW 1,00 h 182 W/m² 14,0 °C 17,6 °C 12,8 km/h (3 Bft)
29.08.2023 16:00 22,8 °C 17,9 °C 61 % 76 % 1008,9 hPa 0,0 l/m² 7,7 km/h (2 Bft) N-NW 1,00 h 142 W/m² 13,5 °C 17,2 °C 13,3 km/h (3 Bft)
29.08.2023 17:00 22,7 °C 17,7 °C 61 % 77 % 1008,9 hPa 0,0 l/m² 7,0 km/h (2 Bft) N-NW 1,00 h 114 W/m² 13,6 °C 17,3 °C 10,7 km/h (2 Bft)
29.08.2023 18:00 22,7 °C 17,6 °C 62 % 79 % 1008,9 hPa 0,0 l/m² 4,7 km/h (1 Bft) N-NW 0,47 h 56 W/m² 13,8 °C 17,6 °C 6,9 km/h (2 Bft)
29.08.2023 19:00 22,7 °C 17,1 °C 62 % 82 % 1009,2 hPa 0,0 l/m² 0,0 km/h (0 Bft) W-NW 0,00 h 18 W/m² 14,1 °C 17,1 °C 0,2 km/h (0 Bft)
29.08.2023 20:00 22,7 °C 16,7 °C 63 % 88 % 1009,6 hPa 0,0 l/m² 0,1 km/h (0 Bft) W-NW 0,00 h 0 W/m² 14,7 °C 16,7 °C 0,2 km/h (0 Bft)
29.08.2023 21:00 22,7 °C 16,2 °C 63 % 90 % 1009,6 hPa 0,0 l/m² 0,2 km/h (0 Bft) W-NW 0,00 h 0 W/m² 14,4 °C 16,2 °C 0,3 km/h (0 Bft)
29.08.2023 22:00 22,6 °C 15,7 °C 63 % 91 % 1009,3 hPa 0,0 l/m² 0,8 km/h (0 Bft) O-NO 0,00 h 0 W/m² 14,2 °C 15,7 °C 1,4 km/h (1 Bft)
29.08.2023 23:00 22,5 °C 15,4 °C 63 % 91 % 1009,0 hPa 0,0 l/m² 1,1 km/h (0 Bft) S-SW 0,00 h 0 W/m² 14,0 °C 15,4 °C 1,9 km/h (1 Bft)
30.08.2023 00:00 22,4 °C 15,0 °C 64 % 91 % 1008,8 hPa 0,0 l/m² 0,1 km/h (0 Bft) S-SW 0,00 h 0 W/m² 13,5 °C 15,0 °C 0,4 km/h (0 Bft)
30.08.2023 01:00 22,4 °C 13,8 °C 64 % 93 % 1008,5 hPa 0,0 l/m² 0,0 km/h (0 Bft) S-SW 0,00 h 0 W/m² 12,7 °C 13,8 °C 0,0 km/h (0 Bft)
30.08.2023 02:00 22,4 °C 12,9 °C 64 % 94 % 1008,4 hPa 0,0 l/m² 0,0 km/h (0 Bft) S-SW 0,00 h 0 W/m² 11,9 °C 12,9 °C 0,0 km/h (0 Bft)
30.08.2023 03:00 22,3 °C 11,9 °C 64 % 95 % 1008,5 hPa 0,0 l/m² 0,0 km/h (0 Bft) S-SW 0,00 h 0 W/m² 11,1 °C 11,9 °C 0,0 km/h (0 Bft)
30.08.2023 04:00 22,3 °C 11,5 °C 64 % 95 % 1008,4 hPa 0,0 l/m² 0,0 km/h (0 Bft) S-SW 0,00 h 0 W/m² 10,7 °C 11,5 °C 0,0 km/h (0 Bft)
30.08.2023 05:00 22,4 °C 11,1 °C 63 % 95 % 1008,3 hPa 0,0 l/m² 0,0 km/h (0 Bft) S-SW 0,00 h 0 W/m² 10,4 °C 11,1 °C 0,0 km/h (0 Bft)
30.08.2023 06:00 22,3 °C 10,6 °C 61 % 96 % 1008,2 hPa 0,0 l/m² 0,0 km/h (0 Bft) S-SW 0,00 h 11 W/m² 10,0 °C 10,6 °C 0,0 km/h (0 Bft)
30.08.2023 07:00 22,2 °C 11,1 °C 61 % 96 % 1008,2 hPa 0,0 l/m² 0,0 km/h (0 Bft) S-SW 0,47 h 54 W/m² 10,5 °C 11,1 °C 0,0 km/h (0 Bft)
30.08.2023 08:00 22,2 °C 13,3 °C 61 % 95 % 1008,0 hPa 0,0 l/m² 0,0 km/h (0 Bft) S-SW 1,00 h 282 W/m² 12,5 °C 13,3 °C 0,0 km/h (0 Bft)
30.08.2023 09:00 22,5 °C 16,0 °C 61 % 89 % 1007,9 hPa 0,0 l/m² 4,3 km/h (1 Bft) S-SW 1,00 h 451 W/m² 14,2 °C 15,7 °C 6,0 km/h (2 Bft)
30.08.2023 10:00 22,8 °C 17,9 °C 61 % 81 % 1007,9 hPa 0,0 l/m² 5,8 km/h (2 Bft) W-SW 1,00 h 624 W/m² 14,6 °C 17,7 °C 8,2 km/h (2 Bft)
30.08.2023 11:00 23,1 °C 18,9 °C 60 % 74 % 1007,7 hPa 0,0 l/m² 6,9 km/h (2 Bft) SW 1,00 h 475 W/m² 14,1 °C 18,3 °C 9,8 km/h (2 Bft)
30.08.2023 12:00 23,1 °C 19,8 °C 60 % 70 % 1007,4 hPa 0,0 l/m² 9,2 km/h (2 Bft) S-SW 1,00 h 675 W/m² 14,0 °C 18,7 °C 12,8 km/h (3 Bft)
30.08.2023 13:00 23,4 °C 21,0 °C 60 % 64 % 1007,1 hPa 0,0 l/m² 8,8 km/h (2 Bft) W-SW 1,00 h 740 W/m² 13,8 °C 20,1 °C 13,2 km/h (3 Bft)
30.08.2023 14:00 23,4 °C 20,9 °C 60 % 63 % 1006,6 hPa 0,0 l/m² 6,7 km/h (2 Bft) S 1,00 h 409 W/m² 13,5 °C 20,4 °C 9,7 km/h (2 Bft)
30.08.2023 15:00 23,3 °C 21,3 °C 60 % 61 % 1006,3 hPa 0,0 l/m² 8,1 km/h (2 Bft) SW 1,00 h 458 W/m² 13,6 °C 20,6 °C 10,9 km/h (2 Bft)
30.08.2023 16:00 23,1 °C 21,1 °C 60 % 61 % 1006,1 hPa 0,0 l/m² 11,6 km/h (2 Bft) S-SW 1,00 h 352 W/m² 13,3 °C 19,5 °C 14,6 km/h (3 Bft)
30.08.2023 17:00 22,9 °C 20,7 °C 60 % 63 % 1005,9 hPa 0,0 l/m² 6,7 km/h (2 Bft) S-SW 1,00 h 172 W/m² 13,4 °C 20,4 °C 8,6 km/h (2 Bft)
30.08.2023 18:00 22,8 °C 19,9 °C 61 % 69 % 1005,7 hPa 0,0 l/m² 3,7 km/h (1 Bft) S 0,53 h 51 W/m² 14,0 °C 19,8 °C 5,7 km/h (2 Bft)
30.08.2023 19:00 22,8 °C 19,3 °C 61 % 72 % 1005,5 hPa 0,0 l/m² 2,3 km/h (1 Bft) SO 0,02 h 36 W/m² 14,1 °C 19,3 °C 4,0 km/h (1 Bft)
30.08.2023 20:00 22,8 °C 18,0 °C 61 % 77 % 1005,6 hPa 0,0 l/m² 5,3 km/h (1 Bft) SO 0,00 h 6 W/m² 13,8 °C 17,7 °C 7,8 km/h (2 Bft)
30.08.2023 21:00 22,7 °C 16,3 °C 62 % 84 % 1005,9 hPa 0,4 l/m² 4,1 km/h (1 Bft) S 0,00 h 0 W/m² 13,6 °C 15,8 °C 6,7 km/h (2 Bft)
30.08.2023 22:00 22,7 °C 15,7 °C 62 % 88 % 1005,8 hPa 0,0 l/m² 1,7 km/h (1 Bft) S 0,00 h 0 W/m² 13,7 °C 15,7 °C 3,0 km/h (1 Bft)
30.08.2023 23:00 22,6 °C 15,6 °C 62 % 88 % 1006,5 hPa 0,4 l/m² 8,2 km/h (2 Bft) W-SW 0,00 h 0 W/m² 13,5 °C 14,5 °C 11,9 km/h (2 Bft)
31.08.2023 00:00 22,6 °C 14,7 °C 62 % 89 % 1006,9 hPa 0,0 l/m² 5,8 km/h (2 Bft) SW 0,00 h 0 W/m² 13,0 °C 14,3 °C 8,1 km/h (2 Bft)
31.08.2023 01:00 22,5 °C 14,5 °C 62 % 91 % 1006,9 hPa 0,4 l/m² 7,0 km/h (2 Bft) S-SW 0,00 h 0 W/m² 13,0 °C 13,4 °C 9,4 km/h (2 Bft)
31.08.2023 02:00 22,4 °C 14,0 °C 62 % 91 % 1007,0 hPa 0,2 l/m² 10,3 km/h (2 Bft) SW 0,00 h 0 W/m² 12,6 °C 11,9 °C 14,2 km/h (3 Bft)
31.08.2023 03:00 22,4 °C 13,5 °C 62 % 92 % 1007,1 hPa 0,0 l/m² 5,7 km/h (2 Bft) S-SW 0,00 h 0 W/m² 12,2 °C 13,1 °C 8,6 km/h (2 Bft)
31.08.2023 04:00 22,4 °C 13,5 °C 62 % 92 % 1007,5 hPa 0,0 l/m² 6,4 km/h (2 Bft) SW 0,00 h 0 W/m² 12,1 °C 12,7 °C 9,3 km/h (2 Bft)
31.08.2023 05:00 22,4 °C 13,5 °C 62 % 91 % 1007,8 hPa 0,0 l/m² 8,6 km/h (2 Bft) SW 0,00 h 0 W/m² 12,0 °C 12,2 °C 12,1 km/h (2 Bft)
31.08.2023 06:00 22,3 °C 13,4 °C 63 % 90 % 1008,3 hPa 0,0 l/m² 8,5 km/h (2 Bft) SW 0,00 h 13 W/m² 11,8 °C 12,0 °C 11,3 km/h (2 Bft)
31.08.2023 07:00 22,3 °C 13,3 °C 62 % 89 % 1008,9 hPa 0,0 l/m² 6,8 km/h (2 Bft) SW 0,48 h 54 W/m² 11,6 °C 12,6 °C 9,2 km/h (2 Bft)
31.08.2023 08:00 22,3 °C 14,0 °C 62 % 88 % 1009,5 hPa 0,0 l/m² 9,1 km/h (2 Bft) SW 1,00 h 202 W/m² 12,0 °C 12,3 °C 12,8 km/h (3 Bft)
31.08.2023 09:00 22,4 °C 14,9 °C 62 % 85 % 1009,9 hPa 0,0 l/m² 16,9 km/h (3 Bft) SW 1,00 h 278 W/m² 12,4 °C 10,5 °C 22,2 km/h (4 Bft)
31.08.2023 10:00 22,5 °C 15,5 °C 61 % 84 % 1010,3 hPa 0,0 l/m² 13,1 km/h (3 Bft) SW 1,00 h 425 W/m² 12,8 °C 12,6 °C 17,6 km/h (3 Bft)
31.08.2023 11:00 22,9 °C 17,1 °C 60 % 78 % 1010,4 hPa 0,0 l/m² 19,1 km/h (3 Bft) SW 1,00 h 628 W/m² 13,2 °C 12,8 °C 24,6 km/h (4 Bft)
31.08.2023 12:00 23,0 °C 17,0 °C 60 % 76 % 1010,3 hPa 0,0 l/m² 18,6 km/h (3 Bft) SW 1,00 h 368 W/m² 12,6 °C 12,8 °C 24,8 km/h (4 Bft)
31.08.2023 13:00 22,9 °C 17,8 °C 60 % 69 % 1010,1 hPa 0,0 l/m² 18,9 km/h (3 Bft) SW 1,00 h 350 W/m² 12,1 °C 13,6 °C 24,9 km/h (4 Bft)
31.08.2023 14:00 22,9 °C 18,4 °C 60 % 65 % 1010,2 hPa 0,0 l/m² 22,7 km/h (4 Bft) SW 1,00 h 391 W/m² 11,7 °C 13,7 °C 29,5 km/h (5 Bft)
31.08.2023 15:00 22,9 °C 17,2 °C 60 % 70 % 1010,7 hPa 0,0 l/m² 16,2 km/h (3 Bft) W-SW 1,00 h 224 W/m² 11,5 °C 13,8 °C 23,8 km/h (4 Bft)
31.08.2023 16:00 22,8 °C 15,1 °C 60 % 83 % 1011,0 hPa 0,2 l/m² 3,1 km/h (1 Bft) NW 1,00 h 257 W/m² 12,3 °C 14,8 °C 5,8 km/h (2 Bft)
31.08.2023 17:00 22,7 °C 16,5 °C 60 % 78 % 1011,2 hPa 0,0 l/m² 4,8 km/h (1 Bft) W 0,95 h 122 W/m² 12,6 °C 16,3 °C 9,2 km/h (2 Bft)
31.08.2023 18:00 22,7 °C 16,6 °C 61 % 79 % 1011,4 hPa 0,0 l/m² 4,6 km/h (1 Bft) W 0,63 h 82 W/m² 12,8 °C 16,5 °C 8,3 km/h (2 Bft)
31.08.2023 19:00 22,7 °C 16,3 °C 62 % 79 % 1011,5 hPa 0,0 l/m² 3,3 km/h (1 Bft) S-SW 0,15 h 26 W/m² 12,6 °C 16,3 °C 4,6 km/h (1 Bft)
31.08.2023 20:00 22,6 °C 13,2 °C 63 % 85 % 1012,6 hPa 4,6 l/m² 12,7 km/h (3 Bft) SW 0,00 h 0 W/m² 10,7 °C 9,9 °C 17,8 km/h (3 Bft)
31.08.2023 21:00 22,7 °C 12,6 °C 64 % 89 % 1012,7 hPa 0,0 l/m² 6,4 km/h (2 Bft) SW 0,00 h 0 W/m² 10,9 °C 11,7 °C 8,7 km/h (2 Bft)
31.08.2023 22:00 22,6 °C 12,5 °C 63 % 90 % 1012,9 hPa 0,0 l/m² 2,7 km/h (1 Bft) SW 0,00 h 0 W/m² 10,9 °C 12,5 °C 4,2 km/h (1 Bft)
31.08.2023 23:00 22,4 °C 12,5 °C 63 % 89 % 1013,3 hPa 0,0 l/m² 2,6 km/h (1 Bft) S-SW 0,00 h 0 W/m² 10,8 °C 12,5 °C 4,6 km/h (1 Bft)
01.09.2023 00:00 22,3 °C 11,9 °C 63 % 92 % 1013,5 hPa 0,0 l/m² 3,0 km/h (1 Bft) W 0,00 h 0 W/m² 10,6 °C 11,9 °C 4,7 km/h (1 Bft)
01.09.2023 01:00 22,3 °C 12,3 °C 63 % 90 % 1013,4 hPa 0,0 l/m² 4,6 km/h (1 Bft) S-SW 0,00 h 0 W/m² 10,7 °C 11,8 °C 7,4 km/h (2 Bft)
01.09.2023 02:00 22,2 °C 11,0 °C 63 % 93 % 1013,4 hPa 0,0 l/m² 0,7 km/h (0 Bft) S-SW 0,00 h 0 W/m² 9,8 °C 11,0 °C 1,8 km/h (1 Bft)
01.09.2023 03:00 22,2 °C 10,4 °C 63 % 95 % 1013,3 hPa 0,0 l/m² 1,0 km/h (0 Bft) O 0,00 h 0 W/m² 9,5 °C 10,4 °C 2,0 km/h (1 Bft)
01.09.2023 04:00 22,1 °C 10,2 °C 63 % 95 % 1013,4 hPa 0,0 l/m² 1,1 km/h (0 Bft) O 0,00 h 0 W/m² 9,4 °C 10,2 °C 2,6 km/h (1 Bft)
01.09.2023 05:00 22,1 °C 10,4 °C 63 % 95 % 1013,5 hPa 0,0 l/m² 1,4 km/h (1 Bft) S 0,00 h 0 W/m² 9,7 °C 10,4 °C 2,9 km/h (1 Bft)
01.09.2023 06:00 22,1 °C 10,1 °C 63 % 95 % 1013,5 hPa 0,0 l/m² 1,9 km/h (1 Bft) S 0,00 h 13 W/m² 9,3 °C 10,1 °C 3,2 km/h (1 Bft)
01.09.2023 07:00 22,1 °C 11,3 °C 62 % 95 % 1013,8 hPa 0,0 l/m² 0,8 km/h (0 Bft) S-SO 0,65 h 110 W/m² 10,6 °C 11,3 °C 1,8 km/h (1 Bft)
01.09.2023 08:00 22,0 °C 13,0 °C 62 % 92 % 1014,2 hPa 0,0 l/m² 5,3 km/h (1 Bft) S-SW 1,00 h 232 W/m² 11,7 °C 12,5 °C 7,4 km/h (2 Bft)
01.09.2023 09:00 22,3 °C 15,0 °C 61 % 87 % 1014,4 hPa 0,0 l/m² 7,2 km/h (2 Bft) S 1,00 h 431 W/m² 12,9 °C 14,3 °C 9,7 km/h (2 Bft)
01.09.2023 10:00 22,6 °C 17,3 °C 61 % 81 % 1014,5 hPa 0,0 l/m² 7,2 km/h (2 Bft) S-SW 1,00 h 582 W/m² 14,0 °C 16,6 °C 9,5 km/h (2 Bft)
01.09.2023 11:00 23,0 °C 18,6 °C 60 % 76 % 1014,5 hPa 0,0 l/m² 7,9 km/h (2 Bft) S-SW 1,00 h 684 W/m² 14,2 °C 17,7 °C 11,2 km/h (2 Bft)
01.09.2023 12:00 23,2 °C 19,4 °C 60 % 74 % 1014,4 hPa 0,0 l/m² 9,4 km/h (2 Bft) S-SO 1,00 h 676 W/m² 14,6 °C 18,2 °C 13,1 km/h (3 Bft)
01.09.2023 13:00 23,2 °C 20,2 °C 60 % 70 % 1014,2 hPa 0,0 l/m² 9,0 km/h (2 Bft) S-SW 1,00 h 567 W/m² 14,6 °C 19,1 °C 12,0 km/h (2 Bft)
01.09.2023 14:00 23,1 °C 20,4 °C 60 % 71 % 1014,2 hPa 0,0 l/m² 8,6 km/h (2 Bft) S-SW 1,00 h 379 W/m² 14,9 °C 19,5 °C 11,5 km/h (2 Bft)
01.09.2023 15:00 23,0 °C 20,3 °C 61 % 72 % 1014,0 hPa 0,0 l/m² 6,4 km/h (2 Bft) S-SW 1,00 h 200 W/m² 15,1 °C 20,0 °C 8,3 km/h (2 Bft)
01.09.2023 16:00 22,8 °C 19,9 °C 62 % 75 % 1013,9 hPa 0,0 l/m² 7,5 km/h (2 Bft) S 0,88 h 96 W/m² 15,3 °C 19,5 °C 9,7 km/h (2 Bft)
01.09.2023 17:00 22,7 °C 19,5 °C 63 % 78 % 1014,1 hPa 0,0 l/m² 5,2 km/h (1 Bft) SW 0,65 h 57 W/m² 15,5 °C 19,4 °C 6,7 km/h (2 Bft)
01.09.2023 18:00 22,6 °C 18,5 °C 63 % 84 % 1014,1 hPa 0,2 l/m² 5,9 km/h (2 Bft) S-SW 0,13 h 42 W/m² 15,7 °C 18,4 °C 7,4 km/h (2 Bft)
01.09.2023 19:00 22,6 °C 17,4 °C 64 % 89 % 1013,9 hPa 0,4 l/m² 2,9 km/h (1 Bft) S-SW 0,10 h 21 W/m² 15,6 °C 17,4 °C 4,1 km/h (1 Bft)
01.09.2023 20:00 22,7 °C 16,7 °C 65 % 93 % 1014,7 hPa 0,0 l/m² 1,0 km/h (0 Bft) S-SW 0,00 h 0 W/m² 15,5 °C 16,7 °C 1,5 km/h (1 Bft)
01.09.2023 21:00 22,8 °C 15,5 °C 64 % 94 % 1015,3 hPa 0,0 l/m² 0,0 km/h (0 Bft) S-SW 0,00 h 0 W/m² 14,6 °C 15,5 °C 0,0 km/h (0 Bft)
01.09.2023 22:00 22,7 °C 14,5 °C 64 % 95 % 1015,9 hPa 0,0 l/m² 0,0 km/h (0 Bft) S-SW 0,00 h 0 W/m² 13,7 °C 14,5 °C 0,0 km/h (0 Bft)
01.09.2023 23:00 22,6 °C 13,7 °C 64 % 96 % 1016,2 hPa 0,0 l/m² 0,0 km/h (0 Bft) S-SW 0,00 h 0 W/m² 13,1 °C 13,7 °C 0,0 km/h (0 Bft)
02.09.2023 00:00 22,5 °C 13,1 °C 64 % 96 % 1016,7 hPa 0,0 l/m² 0,1 km/h (0 Bft) S-SW 0,00 h 0 W/m² 12,5 °C 13,1 °C 0,2 km/h (0 Bft)
02.09.2023 01:00 22,4 °C 12,6 °C 64 % 96 % 1016,9 hPa 0,0 l/m² 0,2 km/h (0 Bft) SW 0,00 h 0 W/m² 12,0 °C 12,6 °C 0,5 km/h (0 Bft)
02.09.2023 02:00 22,3 °C 12,0 °C 64 % 96 % 1017,2 hPa 0,0 l/m² 0,0 km/h (0 Bft) W-SW 0,00 h 0 W/m² 11,4 °C 12,0 °C 0,0 km/h (0 Bft)
02.09.2023 03:00 22,3 °C 11,5 °C 64 % 96 % 1017,3 hPa 0,0 l/m² 0,0 km/h (0 Bft) W-SW 0,00 h 0 W/m² 10,9 °C 11,5 °C 0,0 km/h (0 Bft)
02.09.2023 04:00 22,2 °C 11,2 °C 64 % 97 % 1017,6 hPa 0,0 l/m² 0,0 km/h (0 Bft) W-SW 0,00 h 0 W/m² 10,7 °C 11,2 °C 0,0 km/h (0 Bft)
02.09.2023 05:00 22,1 °C 11,0 °C 63 % 97 % 1017,9 hPa 0,0 l/m² 0,0 km/h (0 Bft) W-SW 0,00 h 0 W/m² 10,5 °C 11,0 °C 0,0 km/h (0 Bft)
02.09.2023 06:00 22,1 °C 11,2 °C 63 % 97 % 1018,5 hPa 0,0 l/m² 0,0 km/h (0 Bft) W-SW 0,00 h 10 W/m² 10,7 °C 11,2 °C 0,0 km/h (0 Bft)
02.09.2023 07:00 22,0 °C 12,2 °C 64 % 97 % 1019,1 hPa 0,0 l/m² 0,0 km/h (0 Bft) W-SW 0,28 h 40 W/m² 11,7 °C 12,2 °C 0,0 km/h (0 Bft)
02.09.2023 08:00 22,0 °C 13,7 °C 64 % 97 % 1019,5 hPa 0,0 l/m² 0,0 km/h (0 Bft) W-SW 1,00 h 135 W/m² 13,2 °C 13,7 °C 0,0 km/h (0 Bft)
02.09.2023 09:00 22,1 °C 15,9 °C 64 % 96 % 1019,9 hPa 0,0 l/m² 1,3 km/h (1 Bft) S-SW 1,00 h 343 W/m² 15,3 °C 15,9 °C 2,2 km/h (1 Bft)
02.09.2023 10:00 22,2 °C 17,7 °C 64 % 90 % 1020,5 hPa 0,0 l/m² 0,5 km/h (0 Bft) W 1,00 h 429 W/m² 16,1 °C 17,7 °C 1,3 km/h (1 Bft)
02.09.2023 11:00 22,1 °C 18,9 °C 64 % 86 % 1021,0 hPa 0,0 l/m² 1,3 km/h (1 Bft) W 1,00 h 419 W/m² 16,5 °C 18,9 °C 2,4 km/h (1 Bft)
02.09.2023 12:00 22,2 °C 20,2 °C 65 % 79 % 1021,2 hPa 0,0 l/m² 1,8 km/h (1 Bft) S-SO 1,00 h 475 W/m² 16,4 °C 20,2 °C 3,3 km/h (1 Bft)
02.09.2023 13:00 22,4 °C 21,2 °C 65 % 73 % 1021,3 hPa 0,0 l/m² 5,0 km/h (1 Bft) S-SO 1,00 h 548 W/m² 16,2 °C 20,9 °C 7,3 km/h (2 Bft)
02.09.2023 14:00 22,4 °C 21,4 °C 65 % 73 % 1021,3 hPa 0,0 l/m² 5,3 km/h (1 Bft) S 1,00 h 463 W/m² 16,2 °C 21,2 °C 7,7 km/h (2 Bft)
02.09.2023 15:00 22,4 °C 21,6 °C 65 % 74 % 1021,2 hPa 0,0 l/m² 5,7 km/h (2 Bft) SW 1,00 h 357 W/m² 16,8 °C 21,5 °C 8,0 km/h (2 Bft)
02.09.2023 16:00 22,4 °C 21,8 °C 64 % 72 % 1021,4 hPa 0,0 l/m² 4,0 km/h (1 Bft) W-SW 1,00 h 345 W/m² 16,6 °C 21,8 °C 6,0 km/h (2 Bft)
02.09.2023 17:00 22,4 °C 22,0 °C 64 % 71 % 1021,5 hPa 0,0 l/m² 3,3 km/h (1 Bft) S-SW 1,00 h 218 W/m² 16,6 °C 22,0 °C 4,8 km/h (1 Bft)
02.09.2023 18:00 22,3 °C 21,6 °C 64 % 75 % 1021,6 hPa 0,0 l/m² 4,4 km/h (1 Bft) S-SW 0,75 h 97 W/m² 17,0 °C 21,6 °C 5,7 km/h (2 Bft)
02.09.2023 19:00 22,4 °C 20,4 °C 65 % 83 % 1021,6 hPa 0,0 l/m² 0,1 km/h (0 Bft) S-SW 0,10 h 25 W/m² 17,3 °C 20,4 °C 0,2 km/h (0 Bft)
02.09.2023 20:00 22,3 °C 17,9 °C 65 % 90 % 1022,0 hPa 0,0 l/m² 0,1 km/h (0 Bft) S-SW 0,00 h 0 W/m² 16,2 °C 17,9 °C 0,2 km/h (0 Bft)
02.09.2023 21:00 22,4 °C 16,3 °C 65 % 93 % 1022,5 hPa 0,0 l/m² 0,0 km/h (0 Bft) S-SW 0,00 h 0 W/m² 15,2 °C 16,3 °C 0,0 km/h (0 Bft)
02.09.2023 22:00 22,4 °C 15,8 °C 65 % 94 % 1022,6 hPa 0,0 l/m² 0,1 km/h (0 Bft) S-SW 0,00 h 0 W/m² 14,9 °C 15,8 °C 0,1 km/h (0 Bft)
02.09.2023 23:00 22,4 °C 15,4 °C 65 % 95 % 1022,9 hPa 0,0 l/m² 0,0 km/h (0 Bft) S-SW 0,00 h 0 W/m² 14,6 °C 15,4 °C 0,0 km/h (0 Bft)
03.09.2023 00:00 22,3 °C 15,4 °C 65 % 95 % 1023,0 hPa 0,0 l/m² 0,0 km/h (0 Bft) S-SW 0,00 h 0 W/m² 14,6 °C 15,4 °C 0,0 km/h (0 Bft)
03.09.2023 01:00 22,2 °C 14,8 °C 65 % 96 % 1023,2 hPa 0,0 l/m² 0,2 km/h (0 Bft) S-SW 0,00 h 0 W/m² 14,1 °C 14,8 °C 0,5 km/h (0 Bft)
03.09.2023 02:00 22,2 °C 14,6 °C 65 % 96 % 1023,3 hPa 0,0 l/m² 0,7 km/h (0 Bft) S-SW 0,00 h 0 W/m² 13,9 °C 14,6 °C 1,7 km/h (1 Bft)
03.09.2023 03:00 22,1 °C 15,2 °C 65 % 96 % 1023,6 hPa 0,0 l/m² 2,7 km/h (1 Bft) W 0,00 h 0 W/m² 14,5 °C 15,2 °C 6,2 km/h (2 Bft)
03.09.2023 04:00 22,1 °C 15,5 °C 65 % 95 % 1023,7 hPa 0,0 l/m² 2,8 km/h (1 Bft) W-NW 0,00 h 0 W/m² 14,7 °C 15,5 °C 7,9 km/h (2 Bft)
03.09.2023 05:00 22,1 °C 15,6 °C 65 % 94 % 1023,7 hPa 0,0 l/m² 2,0 km/h (1 Bft) W-NW 0,00 h 0 W/m² 14,5 °C 15,6 °C 6,6 km/h (2 Bft)
03.09.2023 06:00 22,0 °C 15,2 °C 65 % 93 % 1024,2 hPa 0,0 l/m² 1,8 km/h (1 Bft) W-NW 0,00 h 9 W/m² 14,1 °C 15,2 °C 5,7 km/h (2 Bft)
03.09.2023 07:00 22,0 °C 14,9 °C 64 % 92 % 1024,9 hPa 0,0 l/m² 0,5 km/h (0 Bft) W-NW 0,58 h 62 W/m² 13,7 °C 14,9 °C 2,3 km/h (1 Bft)
03.09.2023 08:00 22,0 °C 16,2 °C 65 % 90 % 1025,9 hPa 0,0 l/m² 2,6 km/h (1 Bft) W 1,00 h 173 W/m² 14,4 °C 16,2 °C 7,3 km/h (2 Bft)
03.09.2023 09:00 22,3 °C 17,3 °C 66 % 84 % 1026,6 hPa 0,0 l/m² 9,9 km/h (2 Bft) NW 1,02 h 336 W/m² 14,6 °C 15,7 °C 16,1 km/h (3 Bft)
03.09.2023 10:00 22,5 °C 18,5 °C 61 % 77 % 1027,4 hPa 0,0 l/m² 7,3 km/h (2 Bft) NW 1,00 h 461 W/m² 14,5 °C 17,9 °C 13,3 km/h (3 Bft)
03.09.2023 11:00 22,6 °C 18,9 °C 61 % 74 % 1027,3 hPa 0,0 l/m² 5,9 km/h (2 Bft) W-NW 1,00 h 446 W/m² 14,2 °C 18,5 °C 11,1 km/h (2 Bft)
03.09.2023 12:00 22,7 °C 19,8 °C 61 % 70 % 1027,3 hPa 0,0 l/m² 7,6 km/h (2 Bft) W-NW 1,00 h 618 W/m² 14,2 °C 19,1 °C 13,6 km/h (3 Bft)
03.09.2023 13:00 22,8 °C 20,7 °C 62 % 66 % 1027,3 hPa 0,0 l/m² 8,0 km/h (2 Bft) W 1,00 h 678 W/m² 14,0 °C 20,0 °C 14,0 km/h (3 Bft)
03.09.2023 14:00 22,7 °C 21,1 °C 62 % 63 % 1027,7 hPa 0,0 l/m² 9,2 km/h (2 Bft) W 1,00 h 578 W/m² 13,7 °C 20,2 °C 14,9 km/h (3 Bft)
03.09.2023 15:00 22,8 °C 21,6 °C 62 % 60 % 1027,7 hPa 0,0 l/m² 7,8 km/h (2 Bft) W-NW 1,00 h 526 W/m² 13,6 °C 21,0 °C 13,9 km/h (3 Bft)
03.09.2023 16:00 22,7 °C 21,9 °C 61 % 57 % 1027,6 hPa 0,0 l/m² 6,9 km/h (2 Bft) N-NW 1,00 h 404 W/m² 13,1 °C 21,5 °C 12,5 km/h (2 Bft)
03.09.2023 17:00 22,6 °C 21,1 °C 60 % 57 % 1027,5 hPa 0,0 l/m² 8,2 km/h (2 Bft) N-NW 1,00 h 216 W/m² 12,3 °C 20,4 °C 12,6 km/h (2 Bft)
03.09.2023 18:00 22,6 °C 20,4 °C 58 % 61 % 1027,5 hPa 0,0 l/m² 3,5 km/h (1 Bft) NW 1,00 h 95 W/m² 12,5 °C 20,4 °C 6,0 km/h (2 Bft)
03.09.2023 19:00 22,6 °C 19,1 °C 60 % 69 % 1027,7 hPa 0,0 l/m² 0,6 km/h (0 Bft) W-NW 0,15 h 31 W/m² 13,2 °C 19,1 °C 1,2 km/h (1 Bft)
03.09.2023 20:00 22,7 °C 16,4 °C 62 % 84 % 1028,2 hPa 0,0 l/m² 0,0 km/h (0 Bft) W-NW 0,00 h 0 W/m² 13,6 °C 16,4 °C 0,0 km/h (0 Bft)
03.09.2023 21:00 22,9 °C 15,0 °C 63 % 90 % 1028,6 hPa 0,0 l/m² 0,0 km/h (0 Bft) W-NW 0,00 h 0 W/m² 13,4 °C 15,0 °C 0,0 km/h (0 Bft)
03.09.2023 22:00 22,8 °C 14,3 °C 63 % 92 % 1028,5 hPa 0,0 l/m² 0,0 km/h (0 Bft) W-NW 0,00 h 0 W/m² 13,0 °C 14,3 °C 0,0 km/h (0 Bft)
03.09.2023 23:00 22,6 °C 13,3 °C 63 % 93 % 1028,3 hPa 0,0 l/m² 0,0 km/h (0 Bft) W 0,00 h 0 W/m² 12,2 °C 13,3 °C 0,0 km/h (0 Bft)
Min-Datum _ 03.09.23 01.09.23 03.09.23 03.09.23 30.08.23 - 03.09.23 - - - 01.09.23 31.08.23 03.09.23
_ Min-Zeit 08:00 06:25 18:24 17:17 19:40 - 23:01 - - - 06:25 20:58 23:01
Minimum _ 21,9 °C 9,8 °C 57 % 55 % 1005,3 hPa - 0,0 km/h (0 Bft) - - - 9,0 °C 7,1 °C 0,0 km/h (0 Bft)
Max-Datum _ 28.08.23 02.09.23 03.09.23 03.09.23 03.09.23 31.08.23 31.08.23 - 03.09.23 01.09.23 02.09.23 02.09.23 31.08.23
_ Max-Zeit 00:00 17:00 08:41 03:29 21:06 20:12 20:10 - 08:26 13:55 19:22 17:00 20:10
Maximum _ 23,6 °C 22,6 °C 67 % 97 % 1028,7 hPa 4,6 l/m² 36,7 km/h
SW (5 Bft)
- 0,05 h 983 W/m² 17,9 °C 22,6 °C 53,1 km/h
SW (7 Bft)
Durchschnitt _ 22,6 °C 16,0 °C 62 % 85 % 1014,1 hPa #9,4 l/m² 4,2 km/h (1 Bft) S-SW #76:44 h 154 W/m² 13,2 °C 15,5 °C 6,5 km/h (2 Bft)
© 2009 Mathias Hoßbach